Time;durP1;ratioP1;P1;durP2;ratioP2;P2;SDS_P1;SDS_P2;PMS_P1;PMS_P2;Temp;Humidity;BMP_temperature;BMP_pressure;BME280_temperature;BME280_humidity;BME280_pressure;Samples;Min_cycle;Max_cycle;Signal;HPM_P1;HPM_P2
2024/03/27 00:01:31;;;;;;;5.45;3.05;;;;;;;;;;5024552;28;20025;-67
2024/03/27 00:03:57;;;;;;;3.70;3.05;;;;;;;;;;5019936;28;20033;-67
2024/03/27 00:06:23;;;;;;;4.45;3.17;;;;;;;;;;5023179;28;20034;-67
2024/03/27 00:08:49;;;;;;;3.83;3.35;;;;;;;;;;5027256;28;20057;-67
2024/03/27 00:11:16;;;;;;;5.05;3.15;;;;;;;;;;5023796;28;20552;-66
2024/03/27 00:13:42;;;;;;;3.60;2.95;;;;;;;;;;5013034;28;20508;-66
2024/03/27 00:16:08;;;;;;;4.68;3.42;;;;;;;;;;4995841;28;20367;-66
2024/03/27 00:18:34;;;;;;;4.57;3.20;;;;;;;;;;5030450;28;20030;-68
2024/03/27 00:21:00;;;;;;;4.53;3.00;;;;;;;;;;5021036;28;20113;-67
2024/03/27 00:23:26;;;;;;;6.35;3.10;;;;;;;;;;5023000;28;20032;-67
2024/03/27 00:25:56;;;;;;;11.35;3.38;;;;;;;;;;5024785;28;20029;-66
2024/03/27 00:28:22;;;;;;;5.03;2.90;;;;;;;;;;5023707;28;20539;-68
2024/03/27 00:30:51;;;;;;;3.60;2.85;;;;;;;;;;5023261;28;20025;-66
2024/03/27 00:33:17;;;;;;;8.70;3.40;;;;;;;;;;5020741;28;20504;-65
2024/03/27 00:35:52;;;;;;;4.80;3.15;;;;;;;;;;5020587;28;20484;-65
2024/03/27 00:38:18;;;;;;;5.43;2.88;;;;;;;;;;5021536;28;20120;-64
2024/03/27 00:40:44;;;;;;;19.65;3.83;;;;;;;;;;5024284;28;20105;-65
2024/03/27 00:43:10;;;;;;;4.75;3.05;;;;;;;;;;5024896;28;20022;-66
2024/03/27 00:45:36;;;;;;;5.43;3.42;;;;;;;;;;5016131;28;20025;-66
2024/03/27 00:48:02;;;;;;;5.05;2.92;;;;;;;;;;5024859;28;20064;-67
2024/03/27 00:50:28;;;;;;;5.03;3.30;;;;;;;;;;5028267;28;20121;-66
2024/03/27 00:52:54;;;;;;;3.47;2.90;;;;;;;;;;5028523;28;20053;-67
2024/03/27 00:55:20;;;;;;;4.25;2.78;;;;;;;;;;5027847;28;20029;-67
2024/03/27 00:57:46;;;;;;;4.47;2.67;;;;;;;;;;5028413;28;20022;-67
2024/03/27 01:00:12;;;;;;;4.70;2.95;;;;;;;;;;5033436;28;20030;-67
2024/03/27 01:02:38;;;;;;;4.78;3.08;;;;;;;;;;5030394;28;20037;-67
2024/03/27 01:05:04;;;;;;;6.63;3.42;;;;;;;;;;5027874;28;20509;-67
2024/03/27 01:07:30;;;;;;;5.18;3.05;;;;;;;;;;5029655;28;20026;-66
2024/03/27 01:09:56;;;;;;;4.00;2.97;;;;;;;;;;5017963;28;20039;-67
2024/03/27 01:12:22;;;;;;;3.20;2.50;;;;;;;;;;5022816;28;20022;-66
2024/03/27 01:14:48;;;;;;;4.10;3.05;;;;;;;;;;5001512;28;20620;-66
2024/03/27 01:17:14;;;;;;;7.22;3.00;;;;;;;;;;5020389;28;20022;-66
2024/03/27 01:19:40;;;;;;;3.72;2.72;;;;;;;;;;5024127;28;20030;-66
2024/03/27 01:22:07;;;;;;;5.35;3.00;;;;;;;;;;5006267;28;20059;-66
2024/03/27 01:24:33;;;;;;;3.90;2.85;;;;;;;;;;5023887;28;20022;-66
2024/03/27 01:26:59;;;;;;;3.70;2.85;;;;;;;;;;5023799;28;20040;-67
2024/03/27 01:29:25;;;;;;;4.50;3.08;;;;;;;;;;5022355;28;20029;-68
2024/03/27 01:31:51;;;;;;;2.80;2.50;;;;;;;;;;5020256;28;20033;-66
2024/03/27 01:34:17;;;;;;;4.53;3.20;;;;;;;;;;5012248;28;20034;-65
2024/03/27 01:36:43;;;;;;;2.83;2.50;;;;;;;;;;5022956;28;20108;-67
2024/03/27 01:39:09;;;;;;;3.10;2.67;;;;;;;;;;5015701;28;20107;-66
2024/03/27 01:41:35;;;;;;;3.80;2.40;;;;;;;;;;5021915;28;20029;-66
2024/03/27 01:44:01;;;;;;;6.45;2.95;;;;;;;;;;5022526;28;20101;-67
2024/03/27 01:46:27;;;;;;;10.15;3.13;;;;;;;;;;5020744;28;20453;-66
2024/03/27 01:48:54;;;;;;;7.53;3.28;;;;;;;;;;5019588;28;20117;-66
2024/03/27 01:51:21;;;;;;;6.35;3.15;;;;;;;;;;5019906;28;20113;-66
2024/03/27 01:53:47;;;;;;;6.85;3.25;;;;;;;;;;5023009;28;20029;-67
2024/03/27 01:56:14;;;;;;;4.70;3.10;;;;;;;;;;5022730;28;20520;-67
2024/03/27 01:58:40;;;;;;;4.75;2.17;;;;;;;;;;5022704;28;20033;-66
2024/03/27 02:01:06;;;;;;;9.32;3.30;;;;;;;;;;5022465;28;20032;-65
2024/03/27 02:03:32;;;;;;;5.18;3.15;;;;;;;;;;5020248;28;20067;-65
2024/03/27 02:05:58;;;;;;;3.45;2.50;;;;;;;;;;5017023;28;20448;-65
2024/03/27 02:08:24;;;;;;;4.40;3.00;;;;;;;;;;5020686;28;20022;-65
2024/03/27 02:10:50;;;;;;;4.43;2.47;;;;;;;;;;5018953;28;20076;-67
2024/03/27 02:13:16;;;;;;;6.07;2.83;;;;;;;;;;5019191;28;20029;-65
2024/03/27 02:15:42;;;;;;;13.15;3.28;;;;;;;;;;5022468;28;20029;-67
2024/03/27 02:18:08;;;;;;;4.97;2.90;;;;;;;;;;5015297;28;20021;-67
2024/03/27 02:20:34;;;;;;;5.40;2.70;;;;;;;;;;5021494;28;20030;-67
2024/03/27 02:23:04;;;;;;;5.65;2.60;;;;;;;;;;5022255;28;20025;-66
2024/03/27 02:25:38;;;;;;;4.80;2.72;;;;;;;;;;5020399;28;20041;-67
2024/03/27 02:28:04;;;;;;;7.35;2.65;;;;;;;;;;5044590;23;20054;-67
2024/03/27 02:30:30;;;;;;;6.82;2.63;;;;;;;;;;5040929;28;20033;-67
2024/03/27 02:32:56;;;;;;;7.38;3.13;;;;;;;;;;5042112;28;20017;-67
2024/03/27 02:35:22;;;;;;;8.23;2.75;;;;;;;;;;5041608;28;20037;-67
2024/03/27 02:37:48;;;;;;;5.18;2.67;;;;;;;;;;5036882;28;20119;-67
2024/03/27 02:40:14;;;;;;;5.70;2.55;;;;;;;;;;5019418;28;20022;-67
2024/03/27 02:42:40;;;;;;;5.60;2.53;;;;;;;;;;5011390;28;20096;-66
2024/03/27 02:45:08;;;;;;;11.05;2.95;;;;;;;;;;5019554;28;20407;-67
2024/03/27 02:47:35;;;;;;;9.32;2.65;;;;;;;;;;5022466;28;20426;-66
2024/03/27 02:50:01;;;;;;;8.25;2.70;;;;;;;;;;5023116;28;20029;-65
2024/03/27 02:52:27;;;;;;;10.30;2.95;;;;;;;;;;5021203;28;20092;-66
2024/03/27 02:54:53;;;;;;;12.77;3.40;;;;;;;;;;5019333;28;20025;-67
2024/03/27 02:57:19;;;;;;;3.63;2.33;;;;;;;;;;5023317;28;20053;-66
2024/03/27 02:59:44;;;;;;;4.63;2.50;;;;;;;;;;5026994;28;20030;-66
2024/03/27 03:02:10;;;;;;;5.32;2.58;;;;;;;;;;5026726;28;20116;-66
2024/03/27 03:04:36;;;;;;;8.32;2.88;;;;;;;;;;5023707;28;20021;-66
2024/03/27 03:07:02;;;;;;;6.68;3.42;;;;;;;;;;5023342;28;20058;-68
2024/03/27 03:09:28;;;;;;;5.88;3.20;;;;;;;;;;5024808;28;20085;-67
2024/03/27 03:11:54;;;;;;;5.57;3.30;;;;;;;;;;5026631;28;20029;-67
2024/03/27 03:14:20;;;;;;;5.45;2.85;;;;;;;;;;5025699;28;20083;-67
2024/03/27 03:16:46;;;;;;;3.50;2.22;;;;;;;;;;5022921;28;20025;-68
2024/03/27 03:19:12;;;;;;;8.40;2.55;;;;;;;;;;5023064;28;20084;-69
2024/03/27 03:21:38;;;;;;;5.25;2.55;;;;;;;;;;5026302;28;20366;-67
2024/03/27 03:24:04;;;;;;;4.47;2.40;;;;;;;;;;5026095;28;20108;-67
2024/03/27 03:26:30;;;;;;;3.85;2.55;;;;;;;;;;5023997;28;20030;-66
2024/03/27 03:28:56;;;;;;;16.20;2.42;;;;;;;;;;5022550;28;20034;-68
2024/03/27 03:31:22;;;;;;;8.43;2.47;;;;;;;;;;5023384;28;20489;-67
2024/03/27 03:33:48;;;;;;;5.15;2.10;;;;;;;;;;5026270;28;20156;-68
2024/03/27 03:36:14;;;;;;;6.07;2.70;;;;;;;;;;5025959;28;20029;-68
2024/03/27 03:38:40;;;;;;;4.75;2.45;;;;;;;;;;5014376;28;20030;-68
2024/03/27 03:41:10;;;;;;;7.07;2.58;;;;;;;;;;5022388;28;20060;-68
2024/03/27 03:43:36;;;;;;;2.45;2.05;;;;;;;;;;5025246;28;20083;-68
2024/03/27 03:46:02;;;;;;;3.85;1.70;;;;;;;;;;5025839;28;20029;-68
2024/03/27 03:48:28;;;;;;;8.23;2.53;;;;;;;;;;5023872;28;20090;-67
2024/03/27 03:50:54;;;;;;;3.85;2.47;;;;;;;;;;5022266;28;20044;-68
2024/03/27 03:53:20;;;;;;;4.25;1.83;;;;;;;;;;5022811;28;20026;-68
2024/03/27 03:55:46;;;;;;;6.18;1.95;;;;;;;;;;5025828;28;20501;-68
2024/03/27 03:58:13;;;;;;;3.95;1.90;;;;;;;;;;5025785;28;20022;-67
2024/03/27 04:00:39;;;;;;;2.67;1.67;;;;;;;;;;5022283;28;20021;-67
2024/03/27 04:03:05;;;;;;;5.57;2.17;;;;;;;;;;5022046;28;20022;-67
2024/03/27 04:05:31;;;;;;;2.92;1.77;;;;;;;;;;5015009;28;20029;-67
2024/03/27 04:07:57;;;;;;;4.13;1.90;;;;;;;;;;5024612;28;20025;-68
2024/03/27 04:10:24;;;;;;;4.43;1.85;;;;;;;;;;5024123;28;20033;-68
2024/03/27 04:12:50;;;;;;;3.95;2.03;;;;;;;;;;5021834;28;20022;-68
2024/03/27 04:15:16;;;;;;;2.97;1.77;;;;;;;;;;5021813;28;20084;-66
2024/03/27 04:17:42;;;;;;;3.22;1.73;;;;;;;;;;5025364;28;20535;-67
2024/03/27 04:20:11;;;;;;;1.90;1.73;;;;;;;;;;5024991;28;20025;-67
2024/03/27 04:22:37;;;;;;;1.60;1.50;;;;;;;;;;5021777;28;20093;-67
2024/03/27 04:25:03;;;;;;;1.77;1.27;;;;;;;;;;5021620;28;20079;-68
2024/03/27 04:27:29;;;;;;;2.42;1.70;;;;;;;;;;5023492;28;20029;-68
2024/03/27 04:29:56;;;;;;;5.05;1.58;;;;;;;;;;5025050;28;20452;-67
2024/03/27 04:32:22;;;;;;;4.75;1.55;;;;;;;;;;5023789;28;20116;-68
2024/03/27 04:34:48;;;;;;;3.28;1.17;;;;;;;;;;5021414;28;20030;-67
2024/03/27 04:37:14;;;;;;;2.05;1.30;;;;;;;;;;5021484;28;20096;-67
2024/03/27 04:39:40;;;;;;;2.08;1.75;;;;;;;;;;5013304;28;20037;-68
2024/03/27 04:42:10;;;;;;;4.63;1.83;;;;;;;;;;5021319;28;20029;-66
2024/03/27 04:44:36;;;;;;;4.32;2.17;;;;;;;;;;5024325;28;20034;-66
2024/03/27 04:47:03;;;;;;;3.58;1.95;;;;;;;;;;5024705;28;20029;-66
2024/03/27 04:49:29;;;;;;;2.00;1.33;;;;;;;;;;5022499;28;20025;-66
2024/03/27 04:51:55;;;;;;;3.97;1.58;;;;;;;;;;5014808;28;20049;-66
2024/03/27 04:54:22;;;;;;;3.08;1.50;;;;;;;;;;5021928;28;20394;-67
2024/03/27 04:56:48;;;;;;;3.95;1.73;;;;;;;;;;5024373;28;20569;-66
2024/03/27 04:59:14;;;;;;;2.40;1.50;;;;;;;;;;5024287;28;20057;-66
2024/03/27 05:01:40;;;;;;;2.67;1.60;;;;;;;;;;5020803;28;20030;-66
2024/03/27 05:04:06;;;;;;;3.30;1.67;;;;;;;;;;5003366;28;20104;-66
2024/03/27 05:06:39;;;;;;;2.85;1.50;;;;;;;;;;5023074;28;20045;-67
2024/03/27 05:09:09;;;;;;;2.45;1.30;;;;;;;;;;5024181;28;20095;-67
2024/03/27 05:11:35;;;;;;;3.33;1.40;;;;;;;;;;5021311;28;20034;-66
2024/03/27 05:14:01;;;;;;;5.85;1.80;;;;;;;;;;5020739;28;20092;-65
2024/03/27 05:16:27;;;;;;;2.60;1.55;;;;;;;;;;5022037;28;20026;-64
2024/03/27 05:18:53;;;;;;;5.50;1.20;;;;;;;;;;5016544;28;20485;-67
2024/03/27 05:21:19;;;;;;;5.28;1.63;;;;;;;;;;5022648;28;20029;-66
2024/03/27 05:23:46;;;;;;;1.63;1.25;;;;;;;;;;5020660;28;20481;-67
2024/03/27 05:26:12;;;;;;;2.58;1.23;;;;;;;;;;5020561;28;20275;-67
2024/03/27 05:28:38;;;;;;;2.67;1.30;;;;;;;;;;5023229;28;20032;-66
2024/03/27 05:31:04;;;;;;;2.25;1.40;;;;;;;;;;5023555;28;20022;-66
2024/03/27 05:33:30;;;;;;;1.77;1.00;;;;;;;;;;5021574;28;20393;-67
2024/03/27 05:35:56;;;;;;;3.45;1.40;;;;;;;;;;5020325;28;20585;-67
2024/03/27 05:38:22;;;;;;;1.20;1.08;;;;;;;;;;5021202;28;20030;-66
2024/03/27 05:40:48;;;;;;;2.35;1.20;;;;;;;;;;5023689;28;20029;-67
2024/03/27 05:43:14;;;;;;;6.78;1.10;;;;;;;;;;5014668;28;20042;-67
2024/03/27 05:45:41;;;;;;;1.20;1.10;;;;;;;;;;4997342;28;20025;-67
2024/03/27 05:48:08;;;;;;;1.70;1.00;;;;;;;;;;5016517;28;20474;-67
2024/03/27 05:50:35;;;;;;;3.72;1.02;;;;;;;;;;5020200;28;20029;-66
2024/03/27 05:53:03;;;;;;;1.83;1.40;;;;;;;;;;5019988;28;20497;-66
2024/03/27 05:55:29;;;;;;;1.98;1.42;;;;;;;;;;5019755;28;20134;-66
2024/03/27 05:57:55;;;;;;;2.33;1.48;;;;;;;;;;5020029;28;20538;-66
2024/03/27 06:00:21;;;;;;;1.50;1.38;;;;;;;;;;4986568;28;20118;-67
2024/03/27 06:02:47;;;;;;;3.70;1.25;;;;;;;;;;5023158;28;20100;-67
2024/03/27 06:05:13;;;;;;;2.05;1.13;;;;;;;;;;5023237;28;20057;-67
2024/03/27 06:07:39;;;;;;;1.35;1.13;;;;;;;;;;5019952;28;20025;-68
2024/03/27 06:10:05;;;;;;;6.05;1.95;;;;;;;;;;5018166;28;20087;-68
2024/03/27 06:12:31;;;;;;;9.32;2.42;;;;;;;;;;5020910;28;20021;-67
2024/03/27 06:14:57;;;;;;;10.07;2.55;;;;;;;;;;5019586;28;20041;-67
2024/03/27 06:17:23;;;;;;;24.40;4.03;;;;;;;;;;5021982;28;20094;-67
2024/03/27 06:19:49;;;;;;;7.55;2.33;;;;;;;;;;5019702;28;20402;-66
2024/03/27 06:22:15;;;;;;;17.17;4.10;;;;;;;;;;5019678;28;20022;-68
2024/03/27 06:24:41;;;;;;;8.57;4.25;;;;;;;;;;5019557;28;20552;-68
2024/03/27 06:27:07;;;;;;;13.77;4.75;;;;;;;;;;5019718;28;20057;-68
2024/03/27 06:29:33;;;;;;;16.15;4.45;;;;;;;;;;5021474;28;20072;-68
2024/03/27 06:31:59;;;;;;;26.63;5.35;;;;;;;;;;5019867;28;20025;-68
2024/03/27 06:34:25;;;;;;;11.40;5.07;;;;;;;;;;5031953;28;20029;-69
2024/03/27 06:36:51;;;;;;;11.05;5.25;;;;;;;;;;5020170;28;20051;-70
2024/03/27 06:39:18;;;;;;;9.07;4.90;;;;;;;;;;5026865;28;20022;-66
2024/03/27 06:41:44;;;;;;;18.98;5.80;;;;;;;;;;5018861;28;20034;-68
2024/03/27 06:44:10;;;;;;;13.73;5.38;;;;;;;;;;5026645;28;20108;-68
2024/03/27 06:46:36;;;;;;;13.32;4.68;;;;;;;;;;5024245;28;20039;-67
2024/03/27 06:49:18;;;;;;;18.95;5.22;;;;;;;;;;5021555;28;20385;-67
2024/03/27 06:51:47;;;;;;;11.95;5.18;;;;;;;;;;5015589;28;20032;-65
2024/03/27 06:54:13;;;;;;;18.88;5.78;;;;;;;;;;5012764;28;20038;-66
2024/03/27 06:56:39;;;;;;;9.60;4.70;;;;;;;;;;5014847;28;20087;-67
2024/03/27 06:59:05;;;;;;;14.00;5.28;;;;;;;;;;5015719;28;20033;-67
2024/03/27 07:01:31;;;;;;;11.02;4.97;;;;;;;;;;5015230;28;20079;-65
2024/03/27 07:03:57;;;;;;;13.60;4.53;;;;;;;;;;5014993;28;20049;-66
2024/03/27 07:06:23;;;;;;;10.70;4.45;;;;;;;;;;5015151;28;20570;-66
2024/03/27 07:08:49;;;;;;;18.70;5.65;;;;;;;;;;5013530;28;20014;-65
2024/03/27 07:11:15;;;;;;;10.98;6.03;;;;;;;;;;5015109;28;20473;-65
2024/03/27 07:13:41;;;;;;;8.02;5.85;;;;;;;;;;5014998;28;20030;-65
2024/03/27 07:16:08;;;;;;;10.38;5.75;;;;;;;;;;5014822;28;20581;-65
2024/03/27 07:18:34;;;;;;;10.60;6.10;;;;;;;;;;5014942;28;20022;-66
2024/03/27 07:21:01;;;;;;;10.27;5.72;;;;;;;;;;5013606;28;20018;-66
2024/03/27 07:23:27;;;;;;;10.73;6.47;;;;;;;;;;5012994;28;20025;-65
2024/03/27 07:25:53;;;;;;;10.23;6.03;;;;;;;;;;5014624;28;20061;-64
2024/03/27 07:28:19;;;;;;;7.13;5.07;;;;;;;;;;5014625;28;20029;-63
2024/03/27 07:30:48;;;;;;;9.32;5.65;;;;;;;;;;5013557;28;20030;-64
2024/03/27 07:33:14;;;;;;;9.10;5.47;;;;;;;;;;5013262;28;20026;-65
2024/03/27 07:35:40;;;;;;;13.75;6.00;;;;;;;;;;5011409;28;20117;-65
2024/03/27 07:38:06;;;;;;;10.50;5.47;;;;;;;;;;5011119;28;20113;-65
2024/03/27 07:40:32;;;;;;;13.98;5.97;;;;;;;;;;5012811;28;20393;-67
2024/03/27 07:42:58;;;;;;;14.18;5.82;;;;;;;;;;5012012;28;20022;-68
2024/03/27 07:45:24;;;;;;;11.52;6.18;;;;;;;;;;5010810;28;20505;-67
2024/03/27 07:47:50;;;;;;;12.55;6.38;;;;;;;;;;5012548;28;20092;-65
2024/03/27 07:50:16;;;;;;;8.68;6.35;;;;;;;;;;5013281;28;20623;-66
2024/03/27 07:52:43;;;;;;;12.32;6.45;;;;;;;;;;5011680;28;20601;-67
2024/03/27 07:55:09;;;;;;;12.35;6.15;;;;;;;;;;5012724;28;20049;-67
2024/03/27 07:57:35;;;;;;;8.82;5.50;;;;;;;;;;5013039;28;20022;-66
2024/03/27 08:00:03;;;;;;;10.13;5.63;;;;;;;;;;5013155;28;20022;-67
2024/03/27 08:02:29;;;;;;;13.65;6.45;;;;;;;;;;5013084;28;20030;-66
2024/03/27 08:04:58;;;;;;;10.40;5.70;;;;;;;;;;5013010;28;20415;-66
2024/03/27 08:07:24;;;;;;;9.77;5.88;;;;;;;;;;5012977;28;20509;-67
2024/03/27 08:09:50;;;;;;;10.02;5.75;;;;;;;;;;5013049;28;20053;-66
2024/03/27 08:12:17;;;;;;;16.92;6.25;;;;;;;;;;5012792;28;20497;-65
2024/03/27 08:14:43;;;;;;;12.30;6.22;;;;;;;;;;5013203;28;20030;-66
2024/03/27 08:17:10;;;;;;;7.53;5.50;;;;;;;;;;5012859;28;20035;-66
2024/03/27 08:19:40;;;;;;;6.65;5.00;;;;;;;;;;5012853;28;20029;-66
2024/03/27 08:22:09;;;;;;;10.15;5.07;;;;;;;;;;5012608;28;20033;-66
2024/03/27 08:24:36;;;;;;;11.65;6.03;;;;;;;;;;5012930;28;20022;-66
2024/03/27 08:27:02;;;;;;;7.72;5.10;;;;;;;;;;5012393;28;20033;-66
2024/03/27 08:29:28;;;;;;;6.78;4.90;;;;;;;;;;5012402;28;20060;-66
2024/03/27 08:31:56;;;;;;;7.72;4.85;;;;;;;;;;5012922;28;20109;-66
2024/03/27 08:34:22;;;;;;;8.88;4.68;;;;;;;;;;5012742;28;20029;-66
2024/03/27 08:36:48;;;;;;;10.68;5.68;;;;;;;;;;5012719;28;20022;-67
2024/03/27 08:39:15;;;;;;;6.65;4.68;;;;;;;;;;5011239;28;20623;-68
2024/03/27 08:41:41;;;;;;;10.18;5.03;;;;;;;;;;5012071;28;20123;-65
2024/03/27 08:44:07;;;;;;;8.02;4.28;;;;;;;;;;5012336;28;20393;-64
2024/03/27 08:46:33;;;;;;;7.55;4.70;;;;;;;;;;5012393;28;20033;-64
2024/03/27 08:49:00;;;;;;;9.18;4.63;;;;;;;;;;5012029;28;20030;-65
2024/03/27 08:51:26;;;;;;;8.63;4.30;;;;;;;;;;5012160;28;20054;-65
2024/03/27 08:53:52;;;;;;;7.80;4.40;;;;;;;;;;5013014;28;20033;-64
2024/03/27 08:56:19;;;;;;;6.13;4.00;;;;;;;;;;5012046;28;20109;-65
2024/03/27 08:58:46;;;;;;;7.03;3.95;;;;;;;;;;5012325;28;20042;-64
2024/03/27 09:01:15;;;;;;;9.50;4.47;;;;;;;;;;5011935;28;20050;-64
2024/03/27 09:03:41;;;;;;;5.85;4.13;;;;;;;;;;5011976;28;20029;-65
2024/03/27 09:06:08;;;;;;;9.00;4.10;;;;;;;;;;5012192;28;20029;-64
2024/03/27 09:08:34;;;;;;;5.18;3.80;;;;;;;;;;5011973;28;20470;-64
2024/03/27 09:11:00;;;;;;;5.63;3.40;;;;;;;;;;5011936;28;20516;-64
2024/03/27 09:13:26;;;;;;;11.18;4.28;;;;;;;;;;5011910;28;20091;-64
2024/03/27 09:15:55;;;;;;;6.18;3.75;;;;;;;;;;5011835;28;20026;-64
2024/03/27 09:18:21;;;;;;;7.13;3.30;;;;;;;;;;5011709;28;20513;-66
2024/03/27 09:20:53;;;;;;;5.38;3.42;;;;;;;;;;5011589;28;20474;-66
2024/03/27 09:23:19;;;;;;;4.28;2.92;;;;;;;;;;5011685;28;20026;-64
2024/03/27 09:25:55;;;;;;;7.53;3.63;;;;;;;;;;5011936;28;20041;-64
2024/03/27 09:28:21;;;;;;;5.78;3.45;;;;;;;;;;5011614;28;20130;-67
2024/03/27 09:30:47;;;;;;;6.75;3.67;;;;;;;;;;5011748;28;20034;-66
2024/03/27 09:33:13;;;;;;;4.47;3.15;;;;;;;;;;5009892;28;20026;-66
2024/03/27 09:35:42;;;;;;;4.63;3.00;;;;;;;;;;5011382;28;20113;-66
2024/03/27 09:38:08;;;;;;;4.15;3.15;;;;;;;;;;5011197;28;20021;-66
2024/03/27 09:40:39;;;;;;;5.90;2.78;;;;;;;;;;5011174;28;20026;-66
2024/03/27 09:43:05;;;;;;;7.00;2.95;;;;;;;;;;5011156;28;20384;-66
2024/03/27 09:45:33;;;;;;;9.25;3.63;;;;;;;;;;5010005;28;20030;-67
2024/03/27 09:47:59;;;;;;;8.85;3.95;;;;;;;;;;5010586;28;20028;-65
2024/03/27 09:50:26;;;;;;;5.80;3.80;;;;;;;;;;5008796;28;20026;-66
2024/03/27 09:52:52;;;;;;;6.60;3.58;;;;;;;;;;5009821;28;20497;-65
2024/03/27 09:55:19;;;;;;;9.20;3.70;;;;;;;;;;5011014;28;20021;-66
2024/03/27 09:57:45;;;;;;;18.23;3.75;;;;;;;;;;5010425;28;20124;-65
2024/03/27 10:00:11;;;;;;;7.60;3.58;;;;;;;;;;5010558;28;20018;-65
2024/03/27 10:02:38;;;;;;;10.07;3.78;;;;;;;;;;5010995;28;20084;-65
2024/03/27 10:05:05;;;;;;;6.40;3.92;;;;;;;;;;5010579;28;20030;-66
2024/03/27 10:07:31;;;;;;;7.60;3.70;;;;;;;;;;5010769;28;20041;-65
2024/03/27 10:09:57;;;;;;;8.07;3.38;;;;;;;;;;5010860;28;20026;-65
2024/03/27 10:12:23;;;;;;;9.60;3.70;;;;;;;;;;5010473;28;20092;-65
2024/03/27 10:14:49;;;;;;;6.20;3.53;;;;;;;;;;5011093;28;20026;-65
2024/03/27 10:17:16;;;;;;;6.88;3.33;;;;;;;;;;5010739;28;20522;-66
2024/03/27 10:19:42;;;;;;;7.65;3.65;;;;;;;;;;5009723;28;20104;-65
2024/03/27 10:22:09;;;;;;;5.35;3.30;;;;;;;;;;5010629;28;20104;-65
2024/03/27 10:24:35;;;;;;;5.13;3.15;;;;;;;;;;5010754;28;20022;-65
2024/03/27 10:27:02;;;;;;;6.88;3.47;;;;;;;;;;5010578;28;20103;-66
2024/03/27 10:29:28;;;;;;;5.75;3.22;;;;;;;;;;5010592;28;20041;-65
2024/03/27 10:31:55;;;;;;;7.65;3.53;;;;;;;;;;5010568;28;20437;-67
2024/03/27 10:34:21;;;;;;;6.07;3.20;;;;;;;;;;5009193;28;20621;-66
2024/03/27 10:36:52;;;;;;;5.50;3.30;;;;;;;;;;5010463;28;20133;-65
2024/03/27 10:39:21;;;;;;;8.60;3.42;;;;;;;;;;4993545;28;20022;-65
2024/03/27 10:41:47;;;;;;;6.75;3.28;;;;;;;;;;5010410;28;20099;-68
2024/03/27 10:44:15;;;;;;;6.75;3.78;;;;;;;;;;5010681;28;20072;-64
2024/03/27 10:46:41;;;;;;;5.05;2.97;;;;;;;;;;5010591;28;20029;-67
2024/03/27 10:49:09;;;;;;;5.97;2.90;;;;;;;;;;5010054;28;20034;-63
2024/03/27 10:51:35;;;;;;;6.47;3.75;;;;;;;;;;5010420;28;20486;-63
2024/03/27 10:54:02;;;;;;;9.02;3.22;;;;;;;;;;5009330;28;20487;-65
2024/03/27 10:56:29;;;;;;;3.50;2.72;;;;;;;;;;5010456;28;20037;-65
2024/03/27 10:58:55;;;;;;;4.70;3.35;;;;;;;;;;5010181;28;20030;-64
2024/03/27 11:01:22;;;;;;;10.70;3.22;;;;;;;;;;5010326;28;20022;-64
2024/03/27 11:03:52;;;;;;;4.28;2.30;;;;;;;;;;5010356;28;20018;-65
2024/03/27 11:06:18;;;;;;;4.40;2.75;;;;;;;;;;5009071;28;20041;-63
2024/03/27 11:08:44;;;;;;;4.88;2.65;;;;;;;;;;5007094;28;20103;-65
2024/03/27 11:11:12;;;;;;;6.20;2.85;;;;;;;;;;5009186;28;20030;-66
2024/03/27 11:13:38;;;;;;;5.57;3.13;;;;;;;;;;5009846;28;20022;-66
2024/03/27 11:16:14;;;;;;;11.00;4.00;;;;;;;;;;5009812;28;20026;-66
2024/03/27 11:18:43;;;;;;;9.60;3.95;;;;;;;;;;5009648;28;20109;-67
2024/03/27 11:21:09;;;;;;;6.38;3.00;;;;;;;;;;5012613;28;20063;-65
2024/03/27 11:23:37;;;;;;;7.05;3.60;;;;;;;;;;5012594;28;20742;-64
2024/03/27 11:26:03;;;;;;;15.57;3.17;;;;;;;;;;5010333;28;20549;-65
2024/03/27 11:28:30;;;;;;;8.63;4.03;;;;;;;;;;4993955;28;20038;-66
2024/03/27 11:30:56;;;;;;;6.60;3.20;;;;;;;;;;5012764;28;20176;-65
2024/03/27 11:33:24;;;;;;;5.57;2.80;;;;;;;;;;5006315;28;20525;-66
2024/03/27 11:35:50;;;;;;;22.65;3.65;;;;;;;;;;5012634;28;20117;-64
2024/03/27 11:38:20;;;;;;;6.32;2.90;;;;;;;;;;5012324;28;20478;-67
2024/03/27 11:40:49;;;;;;;7.47;3.00;;;;;;;;;;5010299;28;20026;-66
2024/03/27 11:43:15;;;;;;;4.70;2.70;;;;;;;;;;5012228;28;20537;-66
2024/03/27 11:45:43;;;;;;;5.80;2.95;;;;;;;;;;5010490;28;20034;-64
2024/03/27 11:48:09;;;;;;;5.53;2.85;;;;;;;;;;5010521;28;20570;-65
2024/03/27 11:50:35;;;;;;;5.78;2.75;;;;;;;;;;5011387;28;20061;-67
2024/03/27 11:53:01;;;;;;;6.30;2.50;;;;;;;;;;5011299;28;20041;-66
2024/03/27 11:55:27;;;;;;;4.72;2.80;;;;;;;;;;5011990;28;20112;-65
2024/03/27 11:57:53;;;;;;;6.45;3.00;;;;;;;;;;5012109;28;20454;-67
2024/03/27 12:00:19;;;;;;;3.78;2.55;;;;;;;;;;5011287;28;20025;-66
2024/03/27 12:02:45;;;;;;;9.45;2.67;;;;;;;;;;5011624;28;20394;-67
2024/03/27 12:05:11;;;;;;;3.97;2.72;;;;;;;;;;5010306;28;20421;-67
2024/03/27 12:07:37;;;;;;;8.32;3.00;;;;;;;;;;5012143;28;20106;-67
2024/03/27 12:10:04;;;;;;;3.70;2.83;;;;;;;;;;5010957;28;20030;-67
2024/03/27 12:12:30;;;;;;;3.90;2.65;;;;;;;;;;5011704;28;20523;-64
2024/03/27 12:14:57;;;;;;;6.43;2.90;;;;;;;;;;5012031;28;20026;-66
2024/03/27 12:17:24;;;;;;;4.22;2.63;;;;;;;;;;5011273;28;20040;-66
2024/03/27 12:19:54;;;;;;;3.92;2.70;;;;;;;;;;5010934;28;20025;-66
2024/03/27 12:22:20;;;;;;;8.15;2.53;;;;;;;;;;5011656;28;20037;-66
2024/03/27 12:24:47;;;;;;;4.18;2.75;;;;;;;;;;5012426;28;20032;-66
2024/03/27 12:27:13;;;;;;;4.88;2.75;;;;;;;;;;5012428;28;20037;-66
2024/03/27 12:29:39;;;;;;;6.93;2.70;;;;;;;;;;5011559;28;20467;-66
2024/03/27 12:32:05;;;;;;;8.07;2.72;;;;;;;;;;4994356;28;20034;-66
2024/03/27 12:34:32;;;;;;;12.57;2.70;;;;;;;;;;5012343;28;20076;-64
2024/03/27 12:37:00;;;;;;;7.18;2.80;;;;;;;;;;5012069;28;20045;-65
2024/03/27 12:39:26;;;;;;;7.47;3.13;;;;;;;;;;5012061;28;20100;-70
2024/03/27 12:41:52;;;;;;;7.70;2.50;;;;;;;;;;5012457;28;20080;-69
2024/03/27 12:44:18;;;;;;;8.60;3.22;;;;;;;;;;5012030;28;20033;-69
2024/03/27 12:46:44;;;;;;;5.90;2.75;;;;;;;;;;5011905;28;20481;-68
2024/03/27 12:49:10;;;;;;;4.68;2.95;;;;;;;;;;5011896;28;20034;-68
2024/03/27 12:51:36;;;;;;;100.90;12.77;;;;;;;;;;5011644;28;20029;-63
2024/03/27 12:54:02;;;;;;;17.77;3.63;;;;;;;;;;5011873;28;20049;-65
2024/03/27 12:56:30;;;;;;;7.68;2.95;;;;;;;;;;5011816;28;20029;-65
2024/03/27 12:58:56;;;;;;;11.13;3.35;;;;;;;;;;5011614;28;20026;-64
2024/03/27 13:01:22;;;;;;;7.30;2.72;;;;;;;;;;5011487;28;20069;-65
2024/03/27 13:03:48;;;;;;;7.45;3.72;;;;;;;;;;5012261;28;20078;-64
2024/03/27 13:06:14;;;;;;;13.80;2.95;;;;;;;;;;5011738;28;20084;-64
2024/03/27 13:08:40;;;;;;;4.07;2.63;;;;;;;;;;5011689;28;20181;-64
2024/03/27 13:11:06;;;;;;;5.38;2.97;;;;;;;;;;5011832;28;20033;-63
2024/03/27 13:13:32;;;;;;;4.43;2.50;;;;;;;;;;5010376;28;20026;-63
2024/03/27 13:15:59;;;;;;;7.68;2.65;;;;;;;;;;5011563;28;20022;-64
2024/03/27 13:18:26;;;;;;;6.50;2.63;;;;;;;;;;5011172;28;20478;-64
2024/03/27 13:20:52;;;;;;;12.80;2.63;;;;;;;;;;5011147;28;20076;-65
2024/03/27 13:23:18;;;;;;;6.35;2.47;;;;;;;;;;5011318;28;20018;-65
2024/03/27 13:25:44;;;;;;;19.67;3.08;;;;;;;;;;5011020;28;20084;-64
2024/03/27 13:28:10;;;;;;;10.80;2.67;;;;;;;;;;5008173;28;20500;-64
2024/03/27 13:30:36;;;;;;;6.30;3.03;;;;;;;;;;5009113;28;20022;-64
2024/03/27 13:33:02;;;;;;;13.05;3.42;;;;;;;;;;5009155;28;20026;-63
2024/03/27 13:35:28;;;;;;;3.60;2.00;;;;;;;;;;5010498;28;20033;-63
2024/03/27 13:37:54;;;;;;;6.05;2.20;;;;;;;;;;5011082;28;20049;-64
2024/03/27 13:40:20;;;;;;;5.57;2.00;;;;;;;;;;5008079;28;20048;-64
2024/03/27 13:42:49;;;;;;;7.30;2.20;;;;;;;;;;5010331;28;20397;-63
2024/03/27 13:45:15;;;;;;;4.03;1.92;;;;;;;;;;5009591;28;20037;-63
2024/03/27 13:47:50;;;;;;;4.35;1.73;;;;;;;;;;5010703;28;20022;-63
2024/03/27 13:50:16;;;;;;;6.07;2.42;;;;;;;;;;5009079;28;20496;-64
2024/03/27 13:52:42;;;;;;;3.90;2.40;;;;;;;;;;5010474;28;20018;-64
2024/03/27 13:55:09;;;;;;;3.67;1.73;;;;;;;;;;5010678;28;20018;-64
2024/03/27 13:57:35;;;;;;;3.30;1.73;;;;;;;;;;5010637;28;20075;-63
2024/03/27 14:00:01;;;;;;;2.92;1.90;;;;;;;;;;5008180;28;20022;-63
2024/03/27 14:02:27;;;;;;;6.88;2.17;;;;;;;;;;5010399;28;20493;-64
2024/03/27 14:04:53;;;;;;;3.97;1.92;;;;;;;;;;5010545;28;20041;-64
2024/03/27 14:07:19;;;;;;;2.65;1.48;;;;;;;;;;5009872;28;20446;-64
2024/03/27 14:09:45;;;;;;;1.92;1.67;;;;;;;;;;5010184;28;20033;-64
2024/03/27 14:12:11;;;;;;;4.20;1.65;;;;;;;;;;5010337;28;20017;-65
2024/03/27 14:14:37;;;;;;;2.22;1.60;;;;;;;;;;5010616;28;20389;-64
2024/03/27 14:17:03;;;;;;;6.72;1.92;;;;;;;;;;5009759;28;20061;-66
2024/03/27 14:19:29;;;;;;;6.85;2.60;;;;;;;;;;5007404;28;20046;-63
2024/03/27 14:21:55;;;;;;;5.20;2.38;;;;;;;;;;5009301;28;20025;-65
2024/03/27 14:24:21;;;;;;;10.27;2.45;;;;;;;;;;5009415;28;20591;-62
2024/03/27 14:26:47;;;;;;;10.02;2.42;;;;;;;;;;4991915;28;20026;-61
2024/03/27 14:29:12;;;;;;;8.70;2.65;;;;;;;;;;5009400;28;20437;-63
2024/03/27 14:31:38;;;;;;;6.38;2.45;;;;;;;;;;5009400;28;20053;-65
2024/03/27 14:34:04;;;;;;;6.18;2.20;;;;;;;;;;5009161;28;20022;-62
2024/03/27 14:36:30;;;;;;;7.57;2.70;;;;;;;;;;5007520;28;20577;-55